createdAt,value
2022-08-19T00:00:38.407Z,91.46
2022-08-19T00:03:12.382Z,91.19
2022-08-19T00:05:46.394Z,90.82
2022-08-19T00:08:12.948Z,90.56
2022-08-19T00:10:45.405Z,89.97
2022-08-19T00:13:11.980Z,90.03
2022-08-19T00:15:46.432Z,90.21
2022-08-19T00:18:12.830Z,90.27
2022-08-19T00:20:47.395Z,90.33
2022-08-19T00:23:20.399Z,89.92
2022-08-19T00:25:48.641Z,90.25
2022-08-19T00:28:28.379Z,90.53
2022-08-19T00:30:54.785Z,90.97
2022-08-19T00:33:27.390Z,91.31
2022-08-19T00:35:57.192Z,91.49
2022-08-19T00:38:35.091Z,91.23
2022-08-19T00:41:14.382Z,90.88
2022-08-19T00:43:42.075Z,91.51
2022-08-19T00:46:16.392Z,92.07
2022-08-19T00:48:42.819Z,92.09
2022-08-19T00:51:16.394Z,92.38
2022-08-19T00:53:46.610Z,92.41
2022-08-19T00:56:13.048Z,92.08
2022-08-19T00:58:48.377Z,92.44
2022-08-19T01:01:15.146Z,92.76
2022-08-19T01:03:57.077Z,92.78
2022-08-19T01:06:32.382Z,92.85
2022-08-19T01:09:07.401Z,92.13
2022-08-19T01:11:44.567Z,91.70
2022-08-19T01:14:18.366Z,91.80
2022-08-19T01:16:54.604Z,92.00
2022-08-19T01:19:31.961Z,92.15
2022-08-19T01:23:02.395Z,91.96
2022-08-19T01:25:40.427Z,92.31
2022-08-19T01:28:14.397Z,92.47
2022-08-19T01:30:51.188Z,92.44
2022-08-19T01:33:25.442Z,92.46
2022-08-19T01:35:52.388Z,92.15
2022-08-19T01:38:35.383Z,92.27
2022-08-19T01:41:18.584Z,92.30
2022-08-19T01:44:13.389Z,92.53
2022-08-19T01:46:40.382Z,92.89
2022-08-19T01:49:08.856Z,93.21
2022-08-19T01:51:42.376Z,93.27
2022-08-19T01:54:23.300Z,92.90
2022-08-19T01:56:58.644Z,92.43
2022-08-19T01:59:31.364Z,92.47
2022-08-19T02:01:58.270Z,92.42
2022-08-19T02:04:32.376Z,92.15
2022-08-19T02:06:59.133Z,91.89
2022-08-19T02:09:32.393Z,91.66
2022-08-19T02:11:59.335Z,91.79
2022-08-19T02:14:25.778Z,92.16
2022-08-19T02:16:58.374Z,92.22
2022-08-19T02:19:24.966Z,92.04
2022-08-19T02:21:58.374Z,92.33
2022-08-19T02:24:24.920Z,92.33
2022-08-19T02:26:52.116Z,92.62
2022-08-19T02:29:31.367Z,92.46
2022-08-19T02:32:04.360Z,92.20
2022-08-19T02:34:30.806Z,92.43
2022-08-19T02:37:04.003Z,92.25
2022-08-19T02:39:30.614Z,92.33
2022-08-19T02:42:04.367Z,92.13
2022-08-19T02:44:31.971Z,92.47
2022-08-19T02:47:05.359Z,92.39
2022-08-19T02:49:34.848Z,92.61
2022-08-19T02:52:08.358Z,93.20
2022-08-19T02:54:35.312Z,93.40
2022-08-19T02:57:08.366Z,93.53
2022-08-19T02:59:35.026Z,93.48
2022-08-19T03:02:01.445Z,93.49
2022-08-19T03:04:34.360Z,93.50
2022-08-19T03:07:10.725Z,93.51
2022-08-19T03:09:46.366Z,93.33
2022-08-19T03:12:12.871Z,93.53
2022-08-19T03:14:46.376Z,93.66
2022-08-19T03:17:13.561Z,93.81
2022-08-19T03:19:40.761Z,94.04
2022-08-19T03:22:14.355Z,94.03
2022-08-19T03:24:48.360Z,94.14
2022-08-19T03:27:15.112Z,94.06
2022-08-19T03:29:54.359Z,93.83
2022-08-19T03:32:33.095Z,93.61
2022-08-19T03:35:00.100Z,93.75
2022-08-19T03:37:34.351Z,93.72
2022-08-19T03:40:00.768Z,94.03
2022-08-19T03:42:48.865Z,94.39
2022-08-19T03:45:28.360Z,94.74
2022-08-19T03:47:55.889Z,94.87
2022-08-19T03:50:22.389Z,94.86
2022-08-19T03:52:58.355Z,94.61
2022-08-19T03:55:24.855Z,94.38
2022-08-19T03:58:04.422Z,94.63
2022-08-19T04:00:30.804Z,94.87
2022-08-19T04:03:04.358Z,94.61
2022-08-19T04:05:30.753Z,95.17
2022-08-19T04:08:09.595Z,95.48
2022-08-19T04:10:39.123Z,95.79
2022-08-19T04:13:14.360Z,95.81
2022-08-19T04:15:45.880Z,96.30
2022-08-19T04:18:18.396Z,96.42
2022-08-19T04:20:46.735Z,96.30
2022-08-19T04:23:14.807Z,96.59
2022-08-19T04:25:52.376Z,96.69
2022-08-19T04:28:34.331Z,96.78
2022-08-19T04:31:00.718Z,96.96
2022-08-19T04:33:34.336Z,96.92
2022-08-19T04:36:00.907Z,96.64
2022-08-19T04:38:34.348Z,96.86
2022-08-19T04:41:19.375Z,96.99
2022-08-19T04:43:56.371Z,96.92
2022-08-19T04:46:39.456Z,96.63
2022-08-19T04:49:13.061Z,96.83
2022-08-19T04:51:50.365Z,96.75
2022-08-19T04:54:30.972Z,96.68
2022-08-19T04:57:14.361Z,96.47
2022-08-19T04:59:40.918Z,96.53
2022-08-19T05:02:09.504Z,96.81
2022-08-19T05:04:46.338Z,96.82
2022-08-19T05:07:20.323Z,96.76
2022-08-19T05:09:57.925Z,96.22
2022-08-19T05:12:32.425Z,96.17
2022-08-19T05:14:59.296Z,95.73
2022-08-19T05:17:29.451Z,95.17
2022-08-19T05:20:24.340Z,93.36
2022-08-19T05:22:50.904Z,90.67
2022-08-19T05:25:27.350Z,87.11
2022-08-19T05:28:00.365Z,84.58
2022-08-19T05:30:46.157Z,81.02
2022-08-19T05:33:20.339Z,76.66
2022-08-19T05:35:47.106Z,72.23
2022-08-19T05:38:20.337Z,68.66
2022-08-19T05:40:47.991Z,66.18
2022-08-19T05:43:16.646Z,63.92
2022-08-19T05:45:50.335Z,62.54
2022-08-19T05:48:21.444Z,61.85
2022-08-19T05:50:58.329Z,61.86
2022-08-19T05:53:32.337Z,61.18
2022-08-19T05:56:06.382Z,60.19
2022-08-19T05:58:33.801Z,59.39
2022-08-19T06:01:11.344Z,58.44
2022-08-19T06:03:38.415Z,57.62
2022-08-19T06:06:13.338Z,57.06
2022-08-19T06:08:40.234Z,55.75
2022-08-19T06:11:49.017Z,56.98
2022-08-19T06:14:20.326Z,57.20
2022-08-19T06:17:06.645Z,57.45
2022-08-19T06:19:40.717Z,56.60
2022-08-19T06:22:08.248Z,56.62
2022-08-19T06:24:34.842Z,56.29
2022-08-19T06:27:08.322Z,55.66
2022-08-19T06:29:48.331Z,54.64
2022-08-19T06:32:17.451Z,53.40
2022-08-19T06:34:50.332Z,53.41
2022-08-19T06:37:17.026Z,53.54
2022-08-19T06:39:45.333Z,53.44
2022-08-19T06:42:21.654Z,53.76
2022-08-19T06:44:53.699Z,52.77
2022-08-19T06:47:29.052Z,52.74
2022-08-19T06:50:02.922Z,53.16
2022-08-19T06:52:41.327Z,56.23
2022-08-19T06:55:08.264Z,59.88
2022-08-19T06:57:35.265Z,63.04
2022-08-19T07:00:12.265Z,65.48
2022-08-19T07:02:39.351Z,67.46
2022-08-19T07:05:15.519Z,69.53
2022-08-19T07:07:44.876Z,71.03
2022-08-19T07:10:20.335Z,72.51
2022-08-19T07:12:49.025Z,72.36
2022-08-19T07:15:23.395Z,74.89
2022-08-19T07:17:57.516Z,73.55
2022-08-19T07:20:28.483Z,73.28
2022-08-19T07:22:55.575Z,73.29
2022-08-19T07:25:31.943Z,73.94
2022-08-19T07:28:00.019Z,75.29
2022-08-19T07:30:34.525Z,75.85
2022-08-19T07:33:03.544Z,76.02
2022-08-19T07:35:39.324Z,76.16
2022-08-19T07:38:05.752Z,76.64
2022-08-19T07:40:32.187Z,75.99
2022-08-19T07:43:05.330Z,77.75
2022-08-19T07:45:39.325Z,77.78
2022-08-19T07:48:13.369Z,77.62
2022-08-19T07:50:47.307Z,78.08
2022-08-19T07:53:14.051Z,78.13
2022-08-19T07:55:54.315Z,77.34
2022-08-19T07:58:29.326Z,76.69
2022-08-19T08:00:55.850Z,76.25
2022-08-19T08:03:53.311Z,76.40
2022-08-19T08:06:38.148Z,77.25
2022-08-19T08:09:19.541Z,76.97
2022-08-19T08:11:57.725Z,77.27
2022-08-19T08:14:44.127Z,76.70
2022-08-19T08:17:11.385Z,76.66
2022-08-19T08:19:45.524Z,76.80
2022-08-19T08:22:35.312Z,76.91
2022-08-19T08:25:17.454Z,76.60
2022-08-19T08:27:45.520Z,76.38
2022-08-19T08:30:17.067Z,75.27
2022-08-19T08:32:53.328Z,75.14
2022-08-19T08:35:21.985Z,75.55
2022-08-19T08:37:59.317Z,74.94
2022-08-19T08:40:54.311Z,74.45
2022-08-19T08:43:41.352Z,74.80
2022-08-19T08:46:31.269Z,73.07
2022-08-19T08:49:29.323Z,70.53
2022-08-19T08:52:09.344Z,70.61
2022-08-19T08:54:56.513Z,68.70
2022-08-19T08:57:54.528Z,69.31
2022-08-19T09:00:27.398Z,69.18
2022-08-19T09:03:03.356Z,69.03
2022-08-19T09:06:01.187Z,67.08
2022-08-19T09:08:47.320Z,68.07
2022-08-19T09:11:42.527Z,65.76
2022-08-19T09:14:49.670Z,64.60
2022-08-19T09:17:18.364Z,65.75
2022-08-19T09:20:03.317Z,66.39
2022-08-19T09:22:29.930Z,63.68
2022-08-19T09:25:03.363Z,64.75
2022-08-19T09:27:41.979Z,63.46
2022-08-19T09:30:29.362Z,62.62
2022-08-19T09:32:57.816Z,59.96
2022-08-19T09:35:53.126Z,61.56
2022-08-19T09:38:21.341Z,58.72
2022-08-19T09:40:55.323Z,59.82
2022-08-19T09:43:33.152Z,61.37
2022-08-19T09:46:08.340Z,60.12
2022-08-19T09:48:34.778Z,61.65
2022-08-19T09:51:18.319Z,61.07
2022-08-19T09:54:04.912Z,60.80
2022-08-19T09:56:39.470Z,62.14
2022-08-19T09:59:17.354Z,61.25
2022-08-19T10:01:43.999Z,61.98
2022-08-19T10:04:19.735Z,61.81
2022-08-19T10:06:55.490Z,60.72
2022-08-19T10:09:26.022Z,61.69
2022-08-19T10:12:11.316Z,60.11
2022-08-19T10:14:40.134Z,62.04
2022-08-19T10:17:17.642Z,60.35
2022-08-19T10:19:55.502Z,59.90
2022-08-19T10:22:23.442Z,58.68
2022-08-19T10:24:53.039Z,58.50
2022-08-19T10:27:33.516Z,56.40
2022-08-19T10:30:02.233Z,58.06
2022-08-19T10:32:37.491Z,57.60
2022-08-19T10:35:08.882Z,56.82
2022-08-19T10:37:56.846Z,55.43
2022-08-19T10:40:23.617Z,54.84
2022-08-19T10:42:57.328Z,55.38
2022-08-19T10:45:26.892Z,56.69
2022-08-19T10:48:01.307Z,57.92
2022-08-19T10:50:47.952Z,56.27
2022-08-19T10:53:21.503Z,57.71
2022-08-19T10:56:16.418Z,56.16
2022-08-19T10:58:56.358Z,56.25
2022-08-19T11:01:23.036Z,55.35
2022-08-19T11:03:57.307Z,54.25
2022-08-19T11:06:25.897Z,55.19
2022-08-19T11:09:00.323Z,53.50
2022-08-19T11:11:27.714Z,55.56
2022-08-19T11:13:54.683Z,55.70
2022-08-19T11:16:30.350Z,54.97
2022-08-19T11:18:59.394Z,54.05
2022-08-19T11:21:39.323Z,55.20
2022-08-19T11:24:16.215Z,55.84
2022-08-19T11:26:51.360Z,54.95
2022-08-19T11:29:21.137Z,55.04
2022-08-19T11:31:57.484Z,55.12
2022-08-19T11:34:28.498Z,54.84
2022-08-19T11:37:07.310Z,55.24
2022-08-19T11:39:36.444Z,53.58
2022-08-19T11:42:31.500Z,53.87
2022-08-19T11:44:58.053Z,56.19
2022-08-19T11:47:24.955Z,55.42
2022-08-19T11:49:58.319Z,58.10
2022-08-19T11:52:24.884Z,56.33
2022-08-19T11:54:58.306Z,55.09
2022-08-19T11:57:24.718Z,56.89
2022-08-19T11:59:54.076Z,57.13
2022-08-19T12:02:27.309Z,57.45
2022-08-19T12:04:54.760Z,56.22
2022-08-19T12:07:29.523Z,56.53
2022-08-19T12:10:03.563Z,55.04
2022-08-19T12:12:37.296Z,53.14
2022-08-19T12:15:03.991Z,55.70
2022-08-19T12:17:39.314Z,56.66
2022-08-19T12:20:07.631Z,56.74
2022-08-19T12:22:40.508Z,57.64
2022-08-19T12:25:15.501Z,58.35
2022-08-19T12:27:46.838Z,59.84
2022-08-19T12:30:23.339Z,61.38
2022-08-19T12:32:49.811Z,61.20
2022-08-19T12:35:22.347Z,62.36
2022-08-19T12:37:56.662Z,63.59
2022-08-19T12:40:30.303Z,63.65
2022-08-19T12:42:56.792Z,63.97
2022-08-19T12:45:23.627Z,65.07
2022-08-19T12:47:57.523Z,65.64
2022-08-19T12:50:24.073Z,66.43
2022-08-19T12:52:57.452Z,67.08
2022-08-19T12:55:30.335Z,65.65
2022-08-19T12:58:04.271Z,66.18
2022-08-19T13:00:41.393Z,65.17
2022-08-19T13:03:07.844Z,65.83
2022-08-19T13:05:41.449Z,64.96
2022-08-19T13:08:14.335Z,63.28
2022-08-19T13:10:40.983Z,62.19
2022-08-19T13:13:17.506Z,62.99
2022-08-19T13:15:46.025Z,62.38
2022-08-19T13:18:21.520Z,63.09
2022-08-19T13:20:52.698Z,64.12
2022-08-19T13:23:27.495Z,64.87
2022-08-19T13:25:58.907Z,65.59
2022-08-19T13:28:33.304Z,65.96
2022-08-19T13:31:18.133Z,69.64
2022-08-19T13:33:53.298Z,71.27
2022-08-19T13:36:19.690Z,72.47
2022-08-19T13:38:53.332Z,74.07
2022-08-19T13:41:20.237Z,73.16
2022-08-19T13:43:55.340Z,73.56
2022-08-19T13:46:21.963Z,74.90
2022-08-19T13:48:49.298Z,75.67
2022-08-19T13:51:25.324Z,75.73
2022-08-19T13:53:51.708Z,76.10
2022-08-19T13:56:24.200Z,75.99
2022-08-19T13:58:59.524Z,76.62
2022-08-19T14:01:27.587Z,77.45
2022-08-19T14:04:01.532Z,77.00
2022-08-19T14:06:30.548Z,78.10
2022-08-19T14:09:03.308Z,77.81
2022-08-19T14:11:30.527Z,79.04
2022-08-19T14:13:56.969Z,79.22
2022-08-19T14:16:31.336Z,79.31
2022-08-19T14:18:58.028Z,80.47
2022-08-19T14:21:33.287Z,80.82
2022-08-19T14:23:59.728Z,80.60
2022-08-19T14:26:33.757Z,80.67
2022-08-19T14:29:00.727Z,81.33
2022-08-19T14:32:05.300Z,81.20
2022-08-19T14:34:39.302Z,79.78
2022-08-19T14:37:14.341Z,80.98
2022-08-19T14:39:52.559Z,81.88
2022-08-19T14:42:19.195Z,81.52
2022-08-19T14:44:53.494Z,81.77
2022-08-19T14:47:27.300Z,81.77
2022-08-19T14:50:05.012Z,82.62
2022-08-19T14:52:38.495Z,83.04
2022-08-19T14:55:11.663Z,82.06
2022-08-19T14:57:45.327Z,81.93
2022-08-19T15:00:19.642Z,82.40
2022-08-19T15:02:53.478Z,81.95
2022-08-19T15:05:20.105Z,81.20
2022-08-19T15:07:46.694Z,81.31
2022-08-19T15:10:23.333Z,82.36
2022-08-19T15:12:51.843Z,81.36
2022-08-19T15:15:25.323Z,81.99
2022-08-19T15:17:51.798Z,80.62
2022-08-19T15:20:26.302Z,81.59
2022-08-19T15:22:59.511Z,79.67
2022-08-19T15:25:25.956Z,80.92
2022-08-19T15:27:53.844Z,81.61
2022-08-19T15:30:31.318Z,80.57
2022-08-19T15:32:58.828Z,77.49
2022-08-19T15:35:33.338Z,78.54
2022-08-19T15:37:59.798Z,73.82
2022-08-19T15:40:34.281Z,73.88
2022-08-19T15:43:01.400Z,74.85
2022-08-19T15:45:39.305Z,74.42
2022-08-19T15:48:06.246Z,75.08
2022-08-19T15:50:39.292Z,74.83
2022-08-19T15:53:08.575Z,75.76
2022-08-19T15:55:50.308Z,75.79
2022-08-19T15:58:43.308Z,75.88
2022-08-19T16:01:28.246Z,75.55
2022-08-19T16:04:23.528Z,76.38
2022-08-19T16:06:56.620Z,76.71
2022-08-19T16:09:35.347Z,77.00
2022-08-19T16:12:05.023Z,77.62
2022-08-19T16:14:42.486Z,78.13
2022-08-19T16:17:11.693Z,78.81
2022-08-19T16:19:38.616Z,78.93
2022-08-19T16:22:12.318Z,79.59
2022-08-19T16:24:38.960Z,79.96
2022-08-19T16:27:13.451Z,80.29
2022-08-19T16:29:53.306Z,80.92
2022-08-19T16:32:27.292Z,80.64
2022-08-19T16:35:05.988Z,79.92
2022-08-19T16:37:33.846Z,79.53
2022-08-19T16:40:06.632Z,80.50
2022-08-19T16:42:41.288Z,78.82
2022-08-19T16:45:08.965Z,77.43
2022-08-19T16:47:43.441Z,74.72
2022-08-19T16:50:22.145Z,72.45
2022-08-19T16:52:58.526Z,74.46
2022-08-19T16:55:31.306Z,75.53
